Time;durP1;ratioP1;P1;durP2;ratioP2;P2;SDS_P1;SDS_P2;PMS_P1;PMS_P2;Temp;Humidity;BMP_temperature;BMP_pressure;BME280_temperature;BME280_humidity;BME280_pressure;Samples;Min_cycle;Max_cycle;Signal;HPM_P1;HPM_P2
2023/01/22 00:01:16;;;;;;;9.90;4.25;;;2.80;1.00;;;;;;5123978;27;20997;-79
2023/01/22 00:03:58;;;;;;;10.60;3.40;;;2.70;1.00;;;;;;5116095;27;20683;-81
2023/01/22 00:06:38;;;;;;;10.88;4.38;;;2.70;1.00;;;;;;5139287;27;21078;-80
2023/01/22 00:09:05;;;;;;;11.68;3.60;;;2.80;1.00;;;;;;5114354;27;20236;-82
2023/01/22 00:11:37;;;;;;;11.15;4.00;;;2.80;1.00;;;;;;5103685;27;20248;-82
2023/01/22 00:14:05;;;;;;;9.82;3.83;;;2.80;1.00;;;;;;5133210;27;20233;-80
2023/01/22 00:16:33;;;;;;;10.55;4.43;;;2.80;1.00;;;;;;5122577;27;20234;-80
2023/01/22 00:19:06;;;;;;;13.00;4.88;;;2.80;1.00;;;;;;5125913;27;21024;-81
2023/01/22 00:21:36;;;;;;;10.68;4.85;;;2.70;1.00;;;;;;5118743;27;20943;-82
2023/01/22 00:24:05;;;;;;;12.15;5.07;;;2.60;1.00;;;;;;5103011;27;21032;-81
2023/01/22 00:26:46;;;;;;;12.02;4.95;;;2.60;1.00;;;;;;5114717;27;20207;-79
2023/01/22 00:29:15;;;;;;;11.23;4.68;;;2.70;1.00;;;;;;5102134;27;20269;-79
2023/01/22 00:31:47;;;;;;;10.10;4.78;;;2.70;1.00;;;;;;5142529;27;20234;-79
2023/01/22 00:34:16;;;;;;;12.68;5.65;;;2.60;1.00;;;;;;5136283;27;20238;-80
2023/01/22 00:36:46;;;;;;;13.10;5.55;;;2.60;1.00;;;;;;5121043;27;20236;-79
2023/01/22 00:39:16;;;;;;;11.25;5.13;;;2.60;1.00;;;;;;5113778;27;20306;-80
2023/01/22 00:41:45;;;;;;;11.95;5.22;;;2.60;1.00;;;;;;5130994;27;20948;-81
2023/01/22 00:44:13;;;;;;;11.75;5.40;;;2.60;1.00;;;;;;5136679;27;20227;-80
2023/01/22 00:46:44;;;;;;;13.98;5.80;;;2.60;1.00;;;;;;5135160;27;20222;-79
2023/01/22 00:49:25;;;;;;;11.88;5.00;;;2.60;1.00;;;;;;5141228;27;20283;-79
2023/01/22 00:51:56;;;;;;;12.98;5.05;;;2.60;1.00;;;;;;5140684;27;20297;-81
2023/01/22 00:54:26;;;;;;;12.10;5.15;;;2.60;1.00;;;;;;5140628;27;20223;-81
2023/01/22 00:56:54;;;;;;;13.50;5.47;;;2.60;1.00;;;;;;5136541;27;20219;-81
2023/01/22 00:59:22;;;;;;;13.13;5.40;;;2.60;1.00;;;;;;5141635;27;20251;-80
2023/01/22 01:01:51;;;;;;;14.40;5.70;;;2.70;1.00;;;;;;5140566;27;20238;-80
2023/01/22 01:04:20;;;;;;;13.15;5.25;;;2.70;1.00;;;;;;5122885;27;20258;-81
2023/01/22 01:06:47;;;;;;;11.55;5.15;;;2.70;1.00;;;;;;5130069;27;20222;-81
2023/01/22 01:09:15;;;;;;;12.10;5.80;;;2.60;1.00;;;;;;5137720;27;20235;-80
2023/01/22 01:11:44;;;;;;;10.70;4.93;;;2.70;1.00;;;;;;5138989;27;20334;-81
2023/01/22 01:14:12;;;;;;;14.75;6.82;;;2.80;1.00;;;;;;5135818;27;20241;-80
2023/01/22 01:16:55;;;;;;;11.20;5.90;;;2.80;1.00;;;;;;5119976;27;20240;-80
2023/01/22 01:19:26;;;;;;;10.25;5.28;;;2.90;1.00;;;;;;5112344;27;20266;-78
2023/01/22 01:21:55;;;;;;;11.68;5.20;;;2.90;1.00;;;;;;5123134;27;20284;-81
2023/01/22 01:24:27;;;;;;;11.30;5.50;;;2.90;1.00;;;;;;5135657;27;20211;-82
2023/01/22 01:26:56;;;;;;;14.18;6.15;;;2.90;1.00;;;;;;5136092;27;20210;-80
2023/01/22 01:29:28;;;;;;;11.48;5.03;;;2.80;1.00;;;;;;5139028;27;20713;-80
2023/01/22 01:31:56;;;;;;;11.07;5.50;;;2.80;1.00;;;;;;5133847;27;20234;-79
2023/01/22 01:34:27;;;;;;;12.48;6.28;;;2.80;1.00;;;;;;5137494;27;20464;-81
2023/01/22 01:36:54;;;;;;;12.90;6.05;;;2.80;1.00;;;;;;5137906;27;21010;-82
2023/01/22 01:39:26;;;;;;;13.07;5.30;;;2.80;1.00;;;;;;5137014;27;20234;-80
2023/01/22 01:41:56;;;;;;;12.57;5.72;;;2.80;1.00;;;;;;5107437;27;20357;-79
2023/01/22 01:44:37;;;;;;;13.75;5.47;;;2.80;1.00;;;;;;5138529;27;21069;-81
2023/01/22 01:47:27;;;;;;;12.48;5.18;;;2.90;1.00;;;;;;5139019;27;20234;-79
2023/01/22 01:49:56;;;;;;;10.73;5.22;;;2.90;1.00;;;;;;5110237;27;20238;-79
2023/01/22 01:52:24;;;;;;;12.48;5.50;;;2.80;1.00;;;;;;5134790;27;20324;-80
2023/01/22 01:54:58;;;;;;;13.90;5.18;;;2.70;1.00;;;;;;5134776;27;20739;-80
2023/01/22 01:57:34;;;;;;;13.95;5.35;;;2.70;1.00;;;;;;5139915;27;20234;-80
2023/01/22 02:00:15;;;;;;;13.18;5.50;;;2.70;1.00;;;;;;5139020;27;20713;-81
2023/01/22 02:02:42;;;;;;;11.20;4.60;;;2.80;1.00;;;;;;5135729;27;20242;-81
2023/01/22 02:05:12;;;;;;;12.15;5.30;;;2.80;1.00;;;;;;5140453;27;20234;-80
2023/01/22 02:07:46;;;;;;;11.48;5.13;;;2.90;1.00;;;;;;5132889;27;20227;-80
2023/01/22 02:10:16;;;;;;;10.32;5.22;;;2.90;1.00;;;;;;5121126;27;21133;-80
2023/01/22 02:12:45;;;;;;;10.40;5.13;;;2.90;1.00;;;;;;5085276;27;20348;-80
2023/01/22 02:15:25;;;;;;;12.10;4.53;;;2.80;1.00;;;;;;5121429;27;20230;-80
2023/01/22 02:17:57;;;;;;;9.73;4.35;;;2.80;1.00;;;;;;5098250;27;20262;-80
2023/01/22 02:20:26;;;;;;;11.55;4.95;;;2.90;1.00;;;;;;5102533;27;21180;-81
2023/01/22 02:22:57;;;;;;;11.00;4.35;;;2.90;1.00;;;;;;5117830;27;20242;-82
2023/01/22 02:25:26;;;;;;;10.40;4.15;;;2.80;1.00;;;;;;5103730;27;20256;-80
2023/01/22 02:27:54;;;;;;;10.68;4.18;;;2.90;1.00;;;;;;5103797;27;20235;-80
2023/01/22 02:30:28;;;;;;;10.85;4.38;;;2.90;1.00;;;;;;5125855;27;20363;-80
2023/01/22 02:32:59;;;;;;;9.73;3.97;;;2.90;1.00;;;;;;5127792;27;21130;-80
2023/01/22 02:35:28;;;;;;;11.02;3.85;;;2.90;1.00;;;;;;5120502;27;20244;-81
2023/01/22 02:37:57;;;;;;;10.07;4.15;;;2.90;1.00;;;;;;5121305;27;21149;-81
2023/01/22 02:40:28;;;;;;;11.32;4.70;;;2.90;1.00;;;;;;5117934;27;20235;-81
2023/01/22 02:42:57;;;;;;;11.05;4.72;;;2.90;1.00;;;;;;5108049;27;20243;-81
2023/01/22 02:45:26;;;;;;;9.00;3.72;;;3.00;1.00;;;;;;5120040;27;20256;-81
2023/01/22 02:47:55;;;;;;;9.63;4.60;;;2.90;1.00;;;;;;5118505;27;20246;-81
2023/01/22 02:50:25;;;;;;;9.43;3.60;;;2.90;1.00;;;;;;5118345;27;20322;-80
2023/01/22 02:52:56;;;;;;;9.75;4.22;;;3.00;1.00;;;;;;5119209;27;20286;-82
2023/01/22 02:55:26;;;;;;;9.35;3.50;;;3.00;1.00;;;;;;5121989;27;20734;-82
2023/01/22 02:58:06;;;;;;;10.52;4.57;;;3.00;1.00;;;;;;5117952;27;21050;-82
2023/01/22 03:00:36;;;;;;;10.57;4.35;;;3.00;1.00;;;;;;5107076;27;20284;-81
2023/01/22 03:03:14;;;;;;;11.63;4.40;;;3.00;1.00;;;;;;5118640;27;20792;-80
2023/01/22 03:05:47;;;;;;;9.38;3.55;;;3.00;1.00;;;;;;5113109;27;20295;-81
2023/01/22 03:08:25;;;;;;;8.68;3.40;;;3.00;1.00;;;;;;5103833;27;20287;-81
2023/01/22 03:10:58;;;;;;;8.73;3.65;;;3.00;1.00;;;;;;5104578;27;20242;-81
2023/01/22 03:21:45;;;;;;;10.38;3.58;;;3.00;1.00;;;;;;5139849;27;20721;-80
2023/01/22 03:24:16;;;;;;;9.13;3.75;;;2.90;1.00;;;;;;5135593;27;20241;-80
2023/01/22 03:26:46;;;;;;;8.10;3.45;;;2.80;1.00;;;;;;5135898;27;20234;-82
2023/01/22 03:29:13;;;;;;;9.65;3.90;;;2.70;1.00;;;;;;5136699;27;20322;-81
2023/01/22 03:31:40;;;;;;;9.50;3.70;;;2.70;1.00;;;;;;5130361;27;20234;-81
2023/01/22 03:34:07;;;;;;;8.00;3.00;;;2.70;1.00;;;;;;5137067;27;20235;-80
2023/01/22 03:36:36;;;;;;;9.00;3.53;;;2.70;1.00;;;;;;5131690;27;20354;-80
2023/01/22 03:39:09;;;;;;;11.10;4.60;;;2.70;1.00;;;;;;5135936;27;20270;-81
2023/01/22 03:41:37;;;;;;;9.73;3.72;;;2.70;1.00;;;;;;5134865;27;20210;-80
2023/01/22 03:44:10;;;;;;;9.05;3.65;;;2.80;1.00;;;;;;5127010;27;20297;-82
2023/01/22 03:46:38;;;;;;;9.10;3.58;;;2.80;1.00;;;;;;5131927;27;20241;-82
2023/01/22 03:49:06;;;;;;;8.73;3.78;;;2.80;1.00;;;;;;5139304;27;20984;-82
2023/01/22 03:51:35;;;;;;;9.15;3.75;;;2.70;1.00;;;;;;5132688;27;20243;-83
2023/01/22 03:54:06;;;;;;;8.80;3.67;;;2.70;1.00;;;;;;5131064;27;20259;-81
2023/01/22 03:56:48;;;;;;;9.15;3.80;;;2.70;1.00;;;;;;5112814;27;20395;-80
2023/01/22 03:59:15;;;;;;;10.48;4.90;;;2.70;1.00;;;;;;5126197;27;20223;-82
2023/01/22 04:01:49;;;;;;;9.55;4.05;;;2.70;1.00;;;;;;5121454;27;20231;-80
2023/01/22 04:04:16;;;;;;;10.27;4.57;;;2.70;1.00;;;;;;5137206;27;20232;-81
2023/01/22 04:06:55;;;;;;;9.85;4.13;;;2.70;1.00;;;;;;5132362;27;20250;-80
2023/01/22 04:09:22;;;;;;;9.63;3.95;;;2.70;1.00;;;;;;5135290;27;20290;-81
2023/01/22 04:11:50;;;;;;;10.32;4.65;;;2.80;1.00;;;;;;5133005;27;20316;-80
2023/01/22 04:14:17;;;;;;;10.02;4.15;;;2.90;1.00;;;;;;5134190;27;20240;-80
2023/01/22 04:16:44;;;;;;;11.65;4.95;;;2.80;1.00;;;;;;5132367;27;20234;-82
2023/01/22 04:19:13;;;;;;;9.85;4.00;;;2.80;1.00;;;;;;5136703;27;20234;-82
2023/01/22 04:21:47;;;;;;;9.90;4.65;;;2.80;1.00;;;;;;5134514;27;20974;-80
2023/01/22 04:24:14;;;;;;;9.38;3.80;;;2.70;1.00;;;;;;5140112;27;20305;-81
2023/01/22 04:26:41;;;;;;;9.13;4.20;;;2.80;1.00;;;;;;5136959;27;20235;-81
2023/01/22 04:29:10;;;;;;;9.73;4.38;;;2.80;1.00;;;;;;5133542;27;20238;-81
2023/01/22 04:31:37;;;;;;;10.98;4.90;;;2.90;1.00;;;;;;5135073;27;20245;-81
2023/01/22 04:34:04;;;;;;;10.70;4.72;;;2.70;1.00;;;;;;5139392;27;20337;-81
2023/01/22 04:36:37;;;;;;;9.70;4.80;;;2.70;1.00;;;;;;5138421;27;20670;-81
2023/01/22 04:39:04;;;;;;;10.50;4.55;;;2.70;1.00;;;;;;5135508;27;20230;-80
2023/01/22 04:41:31;;;;;;;9.00;4.00;;;2.70;1.00;;;;;;5138388;27;20235;-81
2023/01/22 04:43:58;;;;;;;9.98;4.75;;;2.70;1.00;;;;;;5134115;27;20227;-82
2023/01/22 04:46:26;;;;;;;11.68;4.50;;;2.70;1.00;;;;;;5135577;27;20239;-80
2023/01/22 04:48:54;;;;;;;10.13;4.70;;;2.60;1.00;;;;;;5132182;27;20238;-80
2023/01/22 04:51:26;;;;;;;10.85;5.05;;;2.60;1.00;;;;;;5135169;27;20226;-79
2023/01/22 04:53:53;;;;;;;10.90;4.88;;;2.50;1.00;;;;;;5138343;27;20227;-80
2023/01/22 04:56:26;;;;;;;10.70;5.30;;;2.60;1.00;;;;;;5138603;27;20241;-80
2023/01/22 04:58:53;;;;;;;10.55;5.13;;;2.60;1.00;;;;;;5135863;27;20241;-81
2023/01/22 05:01:20;;;;;;;10.70;5.25;;;2.50;1.00;;;;;;5139399;27;20229;-81
2023/01/22 05:03:48;;;;;;;9.95;5.07;;;2.50;1.00;;;;;;5133024;27;20911;-80
2023/01/22 05:06:15;;;;;;;11.05;5.38;;;2.50;1.00;;;;;;5135869;27;20324;-81
2023/01/22 05:08:42;;;;;;;11.52;6.57;;;2.50;1.00;;;;;;5140707;27;20235;-80
2023/01/22 05:11:13;;;;;;;10.32;5.53;;;2.40;1.00;;;;;;5137221;27;20321;-80
2023/01/22 05:13:44;;;;;;;10.70;5.40;;;2.40;1.00;;;;;;5134843;27;20226;-83
2023/01/22 05:16:13;;;;;;;10.65;5.75;;;2.50;1.00;;;;;;5133665;27;20235;-80
2023/01/22 05:18:52;;;;;;;;;;;;;;;;;;;;;
2023/01/22 05:21:27;;;;;;;11.50;6.22;;;2.40;1.00;;;;;;5133842;27;42365;-80
2023/01/22 05:24:01;;;;;;;12.35;6.63;;;2.40;1.00;;;;;;5100605;27;20238;-82
2023/01/22 05:26:28;;;;;;;12.48;6.50;;;2.40;1.00;;;;;;5127081;27;20237;-81
2023/01/22 05:29:00;;;;;;;14.35;7.30;;;2.40;1.00;;;;;;5135872;27;20253;-79
2023/01/22 05:31:27;;;;;;;11.60;6.60;;;2.40;1.00;;;;;;5133137;27;20284;-79
2023/01/22 05:33:54;;;;;;;11.82;5.80;;;2.30;1.00;;;;;;5129709;27;20234;-82
2023/01/22 05:36:22;;;;;;;11.82;6.55;;;2.30;1.00;;;;;;5133483;27;21004;-80
2023/01/22 05:38:59;;;;;;;;;;;;;;;;;;;;;
2023/01/22 05:41:28;;;;;;;11.40;6.22;;;2.30;1.00;;;;;;5128031;27;39571;-79
2023/01/22 05:43:55;;;;;;;12.10;6.15;;;2.30;1.00;;;;;;5135328;27;20319;-80
2023/01/22 05:46:22;;;;;;;12.27;6.75;;;2.30;1.00;;;;;;5137699;27;20766;-80
2023/01/22 05:48:49;;;;;;;12.82;7.30;;;2.30;1.00;;;;;;5131177;27;20952;-79
2023/01/22 05:51:16;;;;;;;13.68;7.18;;;2.30;1.00;;;;;;5131958;27;21118;-79
2023/01/22 05:53:45;;;;;;;12.85;6.80;;;2.30;1.00;;;;;;5128642;27;20230;-79
2023/01/22 05:56:12;;;;;;;12.90;6.82;;;2.20;1.00;;;;;;5123552;27;20238;-80
2023/01/22 05:58:39;;;;;;;12.35;7.45;;;2.30;1.00;;;;;;5138568;27;20222;-80
2023/01/22 06:01:06;;;;;;;12.75;8.15;;;2.30;1.00;;;;;;5131082;27;20279;-79
2023/01/22 06:03:33;;;;;;;11.85;7.15;;;2.40;1.00;;;;;;5136053;27;20293;-81
2023/01/22 06:06:01;;;;;;;12.70;6.90;;;2.30;1.00;;;;;;5132817;27;20234;-82
2023/01/22 06:08:39;;;;;;;13.82;8.35;;;2.30;1.00;;;;;;5111913;27;20319;-80
2023/01/22 06:14:32;;;;;;;14.25;7.75;;;2.40;1.00;;;;;;5080060;27;20246;-80
2023/01/22 06:17:00;;;;;;;13.45;7.38;;;2.40;1.00;;;;;;5124367;27;20275;-81
2023/01/22 06:19:28;;;;;;;12.65;7.55;;;2.40;1.00;;;;;;5100234;27;20239;-79
2023/01/22 06:21:55;;;;;;;13.38;7.68;;;2.40;1.00;;;;;;5113458;27;20231;-80
2023/01/22 06:24:22;;;;;;;12.48;7.25;;;2.40;1.00;;;;;;5115048;27;20227;-79
2023/01/22 06:26:50;;;;;;;12.82;7.45;;;2.40;1.00;;;;;;5114751;27;20240;-80
2023/01/22 06:29:17;;;;;;;13.48;7.85;;;2.40;1.00;;;;;;5115525;27;20227;-81
2023/01/22 06:31:47;;;;;;;12.32;6.82;;;2.40;1.00;;;;;;5112041;27;20722;-81
2023/01/22 06:34:15;;;;;;;13.25;7.40;;;2.40;1.00;;;;;;5117656;27;20231;-80
2023/01/22 06:36:42;;;;;;;14.30;8.40;;;2.40;1.00;;;;;;5116588;27;20239;-80
2023/01/22 06:39:09;;;;;;;11.40;7.20;;;2.50;1.00;;;;;;5117999;27;20235;-80
2023/01/22 06:41:36;;;;;;;13.07;7.13;;;2.40;1.00;;;;;;5113485;27;20271;-80
2023/01/22 06:44:04;;;;;;;14.30;8.52;;;2.40;1.00;;;;;;5121613;27;20287;-80
2023/01/22 06:46:31;;;;;;;12.88;7.13;;;2.40;1.00;;;;;;5116420;27;20242;-80
2023/01/22 06:49:00;;;;;;;13.45;7.10;;;2.40;1.00;;;;;;5115639;27;20232;-81
2023/01/22 06:51:28;;;;;;;14.45;8.20;;;2.40;1.00;;;;;;5109472;27;20742;-80
2023/01/22 06:53:56;;;;;;;14.18;7.90;;;2.40;1.00;;;;;;5116188;27;21120;-80
2023/01/22 06:56:23;;;;;;;13.15;8.40;;;2.40;1.00;;;;;;5120941;27;20243;-80
2023/01/22 06:58:52;;;;;;;13.95;7.55;;;2.40;1.00;;;;;;5114375;27;20239;-80
2023/01/22 07:01:21;;;;;;;16.55;8.70;;;2.40;1.00;;;;;;5102051;27;21066;-80
2023/01/22 07:03:48;;;;;;;13.15;7.45;;;2.30;1.00;;;;;;5110796;27;20235;-81
2023/01/22 07:06:17;;;;;;;13.77;7.45;;;2.30;1.00;;;;;;5109817;27;20791;-80
2023/01/22 07:08:46;;;;;;;13.63;8.00;;;2.40;1.00;;;;;;5115974;27;20240;-81
2023/01/22 07:11:16;;;;;;;13.80;8.02;;;2.40;1.00;;;;;;5117351;27;20322;-80
2023/01/22 07:13:52;;;;;;;13.68;7.75;;;2.40;1.00;;;;;;5112268;27;20236;-80
2023/01/22 07:16:21;;;;;;;13.90;7.70;;;2.40;1.00;;;;;;5113152;27;20602;-79
2023/01/22 07:18:54;;;;;;;15.05;8.77;;;2.40;1.00;;;;;;5121202;27;20296;-79
2023/01/22 07:21:20;;;;;;;13.73;8.95;;;2.50;1.00;;;;;;5115543;27;20293;-79
2023/01/22 07:23:47;;;;;;;14.32;8.35;;;2.50;1.00;;;;;;5117505;27;20265;-79
2023/01/22 07:26:17;;;;;;;17.73;9.35;;;2.40;1.00;;;;;;5115574;27;20270;-81
2023/01/22 07:28:44;;;;;;;13.38;7.68;;;2.50;1.00;;;;;;5116247;27;20981;-81
2023/01/22 07:31:12;;;;;;;15.65;8.90;;;2.50;1.00;;;;;;5115869;27;21061;-81
2023/01/22 07:33:42;;;;;;;13.85;8.05;;;2.70;1.00;;;;;;5114550;27;20235;-80
2023/01/22 07:36:09;;;;;;;14.65;8.00;;;2.60;1.00;;;;;;5112914;27;20736;-81
2023/01/22 07:38:36;;;;;;;13.73;7.82;;;2.60;1.00;;;;;;5122471;27;20243;-80
2023/01/22 07:41:04;;;;;;;17.15;8.68;;;2.60;1.00;;;;;;5117459;27;20688;-80
2023/01/22 07:43:32;;;;;;;16.85;8.20;;;2.60;1.00;;;;;;5119284;27;20275;-80
2023/01/22 07:46:02;;;;;;;12.13;7.65;;;2.60;1.00;;;;;;5119289;27;20324;-82
2023/01/22 07:48:31;;;;;;;14.40;7.47;;;2.70;1.00;;;;;;5116021;27;21050;-80
2023/01/22 07:51:01;;;;;;;13.27;7.15;;;2.70;1.00;;;;;;5117324;27;20326;-81
2023/01/22 07:53:28;;;;;;;13.35;7.35;;;2.70;1.00;;;;;;5123187;27;20734;-81
2023/01/22 07:55:55;;;;;;;15.10;8.30;;;2.60;1.00;;;;;;5123708;27;20242;-81
2023/01/22 07:58:23;;;;;;;13.60;7.75;;;2.70;1.00;;;;;;5118968;27;20235;-82
2023/01/22 08:00:50;;;;;;;13.90;8.02;;;2.70;1.00;;;;;;5115559;27;20247;-82
2023/01/22 08:03:17;;;;;;;12.70;7.35;;;2.70;1.00;;;;;;5117702;27;20275;-82
2023/01/22 08:05:47;;;;;;;13.38;7.20;;;2.70;1.00;;;;;;5108157;27;20742;-81
2023/01/22 08:08:17;;;;;;;13.32;7.55;;;2.80;1.00;;;;;;5110045;27;20239;-82
2023/01/22 08:10:47;;;;;;;13.98;7.88;;;2.70;1.00;;;;;;5120953;27;20989;-82
2023/01/22 08:13:17;;;;;;;12.52;7.00;;;2.70;1.00;;;;;;5120116;27;21047;-81
2023/01/22 08:15:44;;;;;;;12.95;7.00;;;2.70;1.00;;;;;;5121726;27;21135;-82
2023/01/22 08:18:12;;;;;;;12.05;6.70;;;2.70;1.00;;;;;;5109685;27;20228;-79
2023/01/22 08:20:39;;;;;;;12.05;6.32;;;2.70;1.00;;;;;;5119272;27;20246;-79
2023/01/22 08:26:35;;;;;;;12.70;7.10;;;2.80;1.00;;;;;;5098138;27;20244;-79
2023/01/22 08:29:21;;;;;;;;;;;;;;;;;;;;;
2023/01/22 08:31:55;;;;;;;12.38;7.05;;;2.80;1.00;;;;;;5092573;27;39987;-78
2023/01/22 08:34:28;;;;;;;12.75;7.10;;;2.80;1.00;;;;;;5103504;27;20315;-79
2023/01/22 08:37:38;;;;;;;;;;;;;;;;;;;;;
2023/01/22 08:40:28;;;;;;;14.20;7.57;;;2.70;1.00;;;;;;5083297;27;49954;-78
2023/01/22 08:43:02;;;;;;;13.57;7.30;;;2.80;1.00;;;;;;5110252;27;20695;-79
2023/01/22 08:45:31;;;;;;;15.27;7.93;;;2.80;1.00;;;;;;5112816;27;20243;-79
2023/01/22 08:48:01;;;;;;;14.93;8.50;;;2.80;1.00;;;;;;5121620;27;20236;-80
2023/01/22 08:51:03;;;;;;;13.80;10.23;;;2.80;1.00;;;;;;5117168;27;20233;-79
2023/01/22 08:54:08;;;;;;;;;;;;;;;;;;;;;
2023/01/22 08:56:46;;;;;;;14.38;8.55;;;2.70;1.00;;;;;;4951450;28;51761;-83
2023/01/22 09:00:19;;;;;;;;;;;;;;;;;;;;;
2023/01/22 09:03:03;;;;;;;;;;;;;;;;;;;;;
2023/01/22 09:05:36;;;;;;;15.30;9.50;;;2.70;1.00;;;;;;5120774;27;42919;-79
2023/01/22 09:08:06;;;;;;;16.00;9.23;;;2.70;1.00;;;;;;5090661;27;20232;-82
2023/01/22 09:11:10;;;;;;;;;;;;;;;;;;;;;
2023/01/22 09:14:10;;;;;;;;;;;;;;;;;;;;;
2023/01/22 09:17:28;;;;;;;;;;;;;;;;;;;;;
2023/01/22 09:20:28;;;;;;;16.55;9.85;;;2.80;1.00;;;;;;5031032;28;51144;-83
2023/01/22 09:23:26;;;;;;;;;;;;;;;;;;;;;
2023/01/22 09:26:10;;;;;;;;;;;;;;;;;;;;;
2023/01/22 09:28:39;;;;;;;14.23;8.88;;;3.00;1.00;;;;;;5105278;27;42321;-84
2023/01/22 09:34:08;;;;;;;15.48;9.10;;;3.00;1.00;;;;;;5108542;27;20281;-79
2023/01/22 09:36:40;;;;;;;15.38;8.65;;;3.00;1.00;;;;;;5119200;27;20242;-83
2023/01/22 09:39:07;;;;;;;14.48;8.73;;;3.00;1.00;;;;;;5114904;27;20339;-79
2023/01/22 09:41:36;;;;;;;15.25;9.05;;;3.00;1.00;;;;;;5114778;27;21292;-77
2023/01/22 09:44:13;;;;;;;16.10;9.25;;;3.00;1.00;;;;;;5118919;27;20697;-78
2023/01/22 09:46:45;;;;;;;14.10;8.75;;;3.00;1.00;;;;;;5115695;27;20243;-80
2023/01/22 09:49:16;;;;;;;15.60;9.20;;;3.00;1.00;;;;;;5109003;27;20723;-78
2023/01/22 09:51:47;;;;;;;14.75;8.90;;;3.10;1.00;;;;;;5106816;27;20752;-80
2023/01/22 09:54:15;;;;;;;16.08;8.82;;;3.20;1.00;;;;;;5111007;27;20234;-78
2023/01/22 09:56:46;;;;;;;15.02;9.55;;;3.20;1.00;;;;;;5110262;27;20236;-78
2023/01/22 09:59:17;;;;;;;14.65;9.23;;;3.30;1.00;;;;;;5112734;27;20328;-78
2023/01/22 10:01:47;;;;;;;16.65;10.52;;;3.20;1.00;;;;;;5107204;27;20273;-79
2023/01/22 10:04:29;;;;;;;14.88;8.90;;;3.20;1.00;;;;;;5112148;27;20239;-78
2023/01/22 10:07:01;;;;;;;15.98;9.15;;;3.20;1.00;;;;;;5115507;27;20227;-85
2023/01/22 10:09:31;;;;;;;16.25;9.32;;;3.30;1.00;;;;;;5114443;27;20242;-83
2023/01/22 10:12:05;;;;;;;14.45;9.10;;;3.30;1.00;;;;;;5110394;27;20319;-85
2023/01/22 10:14:32;;;;;;;14.00;9.00;;;3.30;1.00;;;;;;5112276;27;20677;-84
2023/01/22 10:17:02;;;;;;;15.68;10.07;;;3.40;1.00;;;;;;5124862;27;20261;-85
2023/01/22 10:19:38;;;;;;;14.80;8.95;;;3.40;1.00;;;;;;5131862;27;20220;-84
2023/01/22 10:22:13;;;;;;;14.85;8.90;;;3.50;1.00;;;;;;5132439;27;20248;-85
2023/01/22 10:24:40;;;;;;;17.13;9.07;;;3.50;1.00;;;;;;5128914;27;20271;-83
2023/01/22 10:27:13;;;;;;;16.10;9.57;;;3.50;1.00;;;;;;5129502;27;20298;-85
2023/01/22 10:29:42;;;;;;;17.73;9.95;;;3.50;1.00;;;;;;5134684;27;20267;-85
2023/01/22 10:32:20;;;;;;;16.25;9.40;;;3.50;1.00;;;;;;5127286;27;20231;-83
2023/01/22 10:35:00;;;;;;;14.88;9.05;;;3.60;1.00;;;;;;5130023;27;20231;-85
2023/01/22 10:37:31;;;;;;;16.25;9.57;;;3.70;1.00;;;;;;5137267;27;20282;-84
2023/01/22 10:40:00;;;;;;;16.35;9.88;;;3.70;1.00;;;;;;5134074;27;20230;-87
2023/01/22 10:42:31;;;;;;;16.50;9.77;;;3.60;1.00;;;;;;5139851;27;20237;-87
2023/01/22 10:45:14;;;;;;;17.05;10.85;;;3.60;1.00;;;;;;5118519;27;20235;-84
2023/01/22 10:47:43;;;;;;;14.68;9.02;;;3.50;1.00;;;;;;5122656;27;20232;-87
2023/01/22 10:50:14;;;;;;;15.15;9.02;;;3.60;1.00;;;;;;5140275;27;20234;-84
2023/01/22 10:53:02;;;;;;;15.93;9.07;;;3.60;1.00;;;;;;5136128;27;20264;-84
2023/01/22 10:59:01;;;;;;;15.35;9.20;;;3.50;1.00;;;;;;5122014;27;20849;-85
2023/01/22 11:04:24;;;;;;;16.90;10.65;;;3.60;1.00;;;;;;5131884;22;20998;-81
2023/01/22 11:06:55;;;;;;;15.93;10.15;;;3.60;1.00;;;;;;5098858;28;20232;-85
2023/01/22 11:09:48;;;;;;;18.50;11.27;;;3.70;1.00;;;;;;5100227;27;20232;-83
2023/01/22 11:12:31;;;;;;;17.65;10.93;;;3.80;1.00;;;;;;5103885;27;20323;-84
2023/01/22 11:15:32;;;;;;;16.95;11.52;;;3.80;1.00;;;;;;5072866;27;20663;-83
2023/01/22 11:21:31;;;;;;;20.90;12.18;;;3.90;1.00;;;;;;5103433;28;20268;-83
2023/01/22 11:27:51;;;;;;;16.77;11.38;;;3.90;1.00;;;;;;5091852;27;20243;-83
2023/01/22 11:30:53;;;;;;;22.08;11.82;;;3.90;1.00;;;;;;5099030;28;20242;-79
2023/01/22 11:33:32;;;;;;;17.70;11.25;;;3.90;1.00;;;;;;5083865;28;20829;-85
2023/01/22 11:36:05;;;;;;;19.20;11.90;;;3.90;1.00;;;;;;5091511;28;21668;-84
2023/01/22 11:38:43;;;;;;;20.15;11.80;;;3.90;1.00;;;;;;5096755;28;20243;-80
2023/01/22 11:41:43;;;;;;;18.45;11.98;;;3.90;1.00;;;;;;5109317;27;21016;-80
2023/01/22 11:44:40;;;;;;;19.98;12.95;;;3.90;1.00;;;;;;5093624;28;20229;-80
2023/01/22 11:47:27;;;;;;;16.75;11.57;;;3.90;1.00;;;;;;5095778;28;20232;-79
2023/01/22 11:50:06;;;;;;;16.88;10.90;;;4.00;1.00;;;;;;5097785;28;20220;-79
2023/01/22 11:52:46;;;;;;;16.33;11.43;;;3.90;1.00;;;;;;5098671;28;20246;-80
2023/01/22 11:55:42;;;;;;;14.57;9.43;;;3.90;1.00;;;;;;5092972;28;20289;-78
2023/01/22 11:58:17;;;;;;;18.75;10.52;;;3.80;1.00;;;;;;5099225;27;20298;-80
2023/01/22 12:00:55;;;;;;;15.95;10.10;;;3.80;1.00;;;;;;5095556;28;20243;-79
2023/01/22 12:03:59;;;;;;;17.15;9.98;;;3.80;1.00;;;;;;5093880;28;20246;-79
2023/01/22 12:06:45;;;;;;;17.23;9.80;;;3.90;1.00;;;;;;5088456;28;20263;-78
2023/01/22 12:09:21;;;;;;;18.27;11.02;;;3.90;1.00;;;;;;5094623;27;20240;-78
2023/01/22 12:12:05;;;;;;;16.08;9.40;;;3.90;1.00;;;;;;5092568;27;20251;-80
2023/01/22 12:14:44;;;;;;;16.88;10.43;;;3.90;1.00;;;;;;5088887;27;20240;-77
2023/01/22 12:17:25;;;;;;;18.25;10.90;;;3.90;1.00;;;;;;5089469;28;20262;-78
2023/01/22 12:20:16;;;;;;;17.33;11.00;;;4.00;1.00;;;;;;5093085;27;20255;-78
2023/01/22 12:22:49;;;;;;;16.80;11.57;;;4.10;1.00;;;;;;5090571;28;20240;-78
2023/01/22 12:25:26;;;;;;;16.13;10.70;;;4.20;1.00;;;;;;5095762;28;20289;-80
2023/01/22 12:28:09;;;;;;;15.00;9.93;;;4.10;1.00;;;;;;5093164;28;20232;-77
2023/01/22 12:30:44;;;;;;;17.27;11.52;;;4.20;1.00;;;;;;5077944;28;20330;-81
2023/01/22 12:33:20;;;;;;;17.08;11.68;;;4.10;1.00;;;;;;5084784;28;20333;-80
2023/01/22 12:35:50;;;;;;;17.27;12.40;;;4.10;1.00;;;;;;5096005;27;20404;-79
2023/01/22 12:38:29;;;;;;;18.60;10.98;;;4.00;1.00;;;;;;5101179;27;21648;-81
2023/01/22 12:41:18;;;;;;;15.50;10.48;;;4.00;1.00;;;;;;5093701;28;20318;-81
2023/01/22 12:43:51;;;;;;;16.73;11.60;;;3.90;1.00;;;;;;5091689;28;20235;-86
2023/01/22 12:46:26;;;;;;;17.30;11.18;;;3.90;1.00;;;;;;5097895;28;20254;-82
2023/01/22 12:49:07;;;;;;;20.23;12.57;;;4.00;1.00;;;;;;5078230;27;20292;-81
2023/01/22 12:51:41;;;;;;;18.20;11.05;;;3.90;1.00;;;;;;5089435;27;20712;-83
2023/01/22 12:54:31;;;;;;;16.80;11.60;;;3.80;1.00;;;;;;5082631;28;20232;-79
2023/01/22 12:57:11;;;;;;;17.63;10.90;;;3.70;1.00;;;;;;5093451;28;20224;-81
2023/01/22 12:59:46;;;;;;;17.73;11.73;;;3.60;1.00;;;;;;5095903;28;20740;-82
2023/01/22 13:02:37;;;;;;;18.10;12.07;;;3.60;1.00;;;;;;5093957;28;20225;-83
2023/01/22 13:05:36;;;;;;;19.88;11.90;;;3.50;1.00;;;;;;5108898;27;20235;-81
2023/01/22 13:08:06;;;;;;;17.38;12.32;;;3.50;1.00;;;;;;5103661;27;20283;-81
2023/01/22 13:10:53;;;;;;;16.38;11.02;;;3.40;1.00;;;;;;5118559;27;20224;-82
2023/01/22 13:13:27;;;;;;;17.88;12.00;;;3.50;1.00;;;;;;5095892;27;20300;-83
2023/01/22 13:25:22;;;;;;;21.48;12.93;;;3.60;1.00;;;;;;5055545;27;20235;-83
2023/01/22 13:28:04;;;;;;;20.27;11.45;;;3.60;1.00;;;;;;5086260;27;20326;-84
2023/01/22 13:30:33;;;;;;;22.40;12.60;;;3.50;1.00;;;;;;5085809;27;20272;-82
2023/01/22 13:33:11;;;;;;;22.35;13.88;;;3.50;1.00;;;;;;5103572;27;20224;-83
2023/01/22 13:35:42;;;;;;;21.67;13.13;;;3.60;1.00;;;;;;5116095;27;20296;-84
2023/01/22 13:38:24;;;;;;;20.33;13.38;;;3.60;1.00;;;;;;5108738;27;20292;-82
2023/01/22 13:40:56;;;;;;;18.42;11.85;;;3.60;1.00;;;;;;5100350;27;20253;-81
2023/01/22 13:43:24;;;;;;;21.63;14.25;;;3.60;1.00;;;;;;5098075;27;20228;-83
2023/01/22 13:46:04;;;;;;;18.60;12.02;;;3.60;1.00;;;;;;5095709;27;21367;-85
2023/01/22 13:49:02;;;;;;;18.73;12.77;;;3.50;1.00;;;;;;5103568;27;20321;-84
2023/01/22 13:54:42;;;;;;;21.48;12.85;;;3.70;1.00;;;;;;5084888;27;20243;-83
2023/01/22 13:57:12;;;;;;;21.27;14.45;;;3.70;1.00;;;;;;5088338;27;20435;-83
2023/01/22 13:59:51;;;;;;;19.98;12.55;;;3.70;1.00;;;;;;5114280;27;20228;-83
2023/01/22 14:02:22;;;;;;;22.45;12.50;;;3.70;1.00;;;;;;5112820;27;20238;-84
2023/01/22 14:05:00;;;;;;;21.30;13.13;;;3.60;1.00;;;;;;5117731;27;21141;-83
2023/01/22 14:08:02;;;;;;;22.27;13.48;;;3.60;1.00;;;;;;5068213;27;20239;-82
2023/01/22 14:11:03;;;;;;;19.40;11.90;;;3.60;1.00;;;;;;5069520;27;20230;-82
2023/01/22 14:16:44;;;;;;;20.10;12.32;;;3.50;1.00;;;;;;5036085;28;20243;-84
2023/01/22 14:19:11;;;;;;;22.35;13.60;;;3.50;1.00;;;;;;5073897;28;20240;-83
2023/01/22 14:21:41;;;;;;;22.77;13.45;;;3.40;1.00;;;;;;5061169;27;20246;-84
2023/01/22 14:24:12;;;;;;;22.08;13.90;;;3.40;1.00;;;;;;5107426;27;20287;-83
2023/01/22 14:27:14;;;;;;;24.75;14.07;;;3.40;1.00;;;;;;5110347;27;20234;-84
2023/01/22 14:29:53;;;;;;;21.27;13.60;;;3.50;1.00;;;;;;5039033;28;20349;-84
2023/01/22 14:32:34;;;;;;;21.98;14.25;;;3.60;1.00;;;;;;5054462;28;20404;-84